Time;durP1;ratioP1;P1;durP2;ratioP2;P2;SDS_P1;SDS_P2;PMS_P1;PMS_P2;Temp;Humidity;BMP_temperature;BMP_pressure;BME280_temperature;BME280_humidity;BME280_pressure;Samples;Min_cycle;Max_cycle;Signal;HPM_P1;HPM_P2
2022/06/27 00:01:22;;;;;;;3.8;2.3;;;;;;;;;;;;;
2022/06/27 00:03:52;;;;;;;2.5;1.9;;;;;;;;;;;;;
2022/06/27 00:06:19;;;;;;;1.9;1.8;;;;;;;;;;;;;
2022/06/27 00:08:42;;;;;;;1.9;1.8;;;;;;;;;;;;;
2022/06/27 00:11:08;;;;;;;1.8;1.7;;;;;;;;;;;;;
2022/06/27 00:13:33;;;;;;;2;1.6;;;;;;;;;;;;;
2022/06/27 00:16:07;;;;;;;2;1.8;;;;;;;;;;;;;
2022/06/27 00:18:29;;;;;;;2.8;1.8;;;;;;;;;;;;;
2022/06/27 00:20:54;;;;;;;2.6;1.8;;;;;;;;;;;;;
2022/06/27 00:23:19;;;;;;;2;1.8;;;;;;;;;;;;;
2022/06/27 00:25:45;;;;;;;1.8;1.7;;;;;;;;;;;;;
2022/06/27 00:28:10;;;;;;;3.4;1.9;;;;;;;;;;;;;
2022/06/27 00:30:37;;;;;;;2.9;1.8;;;;;;;;;;;;;
2022/06/27 00:33:02;;;;;;;2.5;2;;;;;;;;;;;;;
2022/06/27 00:35:28;;;;;;;1.7;1.6;;;;;;;;;;;;;
2022/06/27 00:37:53;;;;;;;2.2;2;;;;;;;;;;;;;
2022/06/27 00:40:20;;;;;;;2;1.7;;;;;;;;;;;;;
2022/06/27 00:42:45;;;;;;;3.3;2.2;;;;;;;;;;;;;
2022/06/27 00:45:10;;;;;;;1.9;1.7;;;;;;;;;;;;;
2022/06/27 00:47:37;;;;;;;4.8;2.4;;;;;;;;;;;;;
2022/06/27 00:50:03;;;;;;;2.3;2.1;;;;;;;;;;;;;
2022/06/27 00:52:28;;;;;;;2.9;2.1;;;;;;;;;;;;;
2022/06/27 00:54:53;;;;;;;4.2;2.1;;;;;;;;;;;;;
2022/06/27 00:57:18;;;;;;;3.3;1.9;;;;;;;;;;;;;
2022/06/27 00:59:43;;;;;;;2;1.8;;;;;;;;;;;;;
2022/06/27 01:02:08;;;;;;;2.7;2.1;;;;;;;;;;;;;
2022/06/27 01:04:35;;;;;;;3.5;2.1;;;;;;;;;;;;;
2022/06/27 01:07:00;;;;;;;2.1;1.9;;;;;;;;;;;;;
2022/06/27 01:09:26;;;;;;;3.5;2.1;;;;;;;;;;;;;
2022/06/27 01:11:51;;;;;;;5.6;2.1;;;;;;;;;;;;;
2022/06/27 01:14:18;;;;;;;6.2;2.4;;;;;;;;;;;;;
2022/06/27 01:16:43;;;;;;;4;2.2;;;;;;;;;;;;;
2022/06/27 01:19:09;;;;;;;3.7;1.9;;;;;;;;;;;;;
2022/06/27 01:21:34;;;;;;;4.4;1.9;;;;;;;;;;;;;
2022/06/27 01:23:59;;;;;;;3;2.1;;;;;;;;;;;;;
2022/06/27 01:26:24;;;;;;;4.3;1.9;;;;;;;;;;;;;
2022/06/27 01:28:50;;;;;;;4.5;2.1;;;;;;;;;;;;;
2022/06/27 01:31:15;;;;;;;2.2;1.8;;;;;;;;;;;;;
2022/06/27 01:33:42;;;;;;;6;2.2;;;;;;;;;;;;;
2022/06/27 01:38:32;;;;;;;3.3;2.2;;;;;;;;;;;;;
2022/06/27 01:40:59;;;;;;;4.2;2.4;;;;;;;;;;;;;
2022/06/27 01:43:24;;;;;;;3.2;1.8;;;;;;;;;;;;;
2022/06/27 01:45:50;;;;;;;3.9;2.4;;;;;;;;;;;;;
2022/06/27 01:48:15;;;;;;;4;2.4;;;;;;;;;;;;;
2022/06/27 01:50:41;;;;;;;5.6;2.5;;;;;;;;;;;;;
2022/06/27 01:53:06;;;;;;;4.4;2.2;;;;;;;;;;;;;
2022/06/27 01:55:32;;;;;;;5.2;2.3;;;;;;;;;;;;;
2022/06/27 01:57:57;;;;;;;6.9;2.1;;;;;;;;;;;;;
2022/06/27 02:00:24;;;;;;;4.5;2.5;;;;;;;;;;;;;
2022/06/27 02:02:49;;;;;;;4.8;2.1;;;;;;;;;;;;;
2022/06/27 02:05:16;;;;;;;5.8;2.9;;;;;;;;;;;;;
2022/06/27 02:07:40;;;;;;;6.8;2.4;;;;;;;;;;;;;
2022/06/27 02:10:10;;;;;;;5.8;2.7;;;;;;;;;;;;;
2022/06/27 02:12:39;;;;;;;5.6;2.5;;;;;;;;;;;;;
2022/06/27 02:15:04;;;;;;;6.7;2.4;;;;;;;;;;;;;
2022/06/27 02:17:32;;;;;;;7.6;2.5;;;;;;;;;;;;;
2022/06/27 02:19:57;;;;;;;5.7;2.5;;;;;;;;;;;;;
2022/06/27 02:22:23;;;;;;;6.1;2.4;;;;;;;;;;;;;
2022/06/27 02:24:48;;;;;;;5.9;3;;;;;;;;;;;;;
2022/06/27 02:27:13;;;;;;;5.8;2.5;;;;;;;;;;;;;
2022/06/27 02:29:38;;;;;;;5.8;2.6;;;;;;;;;;;;;
2022/06/27 02:32:04;;;;;;;4.6;2.7;;;;;;;;;;;;;
2022/06/27 02:34:29;;;;;;;6.3;2.8;;;;;;;;;;;;;
2022/06/27 02:36:56;;;;;;;5.8;2.6;;;;;;;;;;;;;
2022/06/27 02:39:21;;;;;;;8.1;2.7;;;;;;;;;;;;;
2022/06/27 02:41:48;;;;;;;4.3;2.3;;;;;;;;;;;;;
2022/06/27 02:44:13;;;;;;;6.5;2.3;;;;;;;;;;;;;
2022/06/27 02:46:39;;;;;;;5.2;2.1;;;;;;;;;;;;;
2022/06/27 02:49:04;;;;;;;4.3;2.6;;;;;;;;;;;;;
2022/06/27 02:51:30;;;;;;;6.6;3;;;;;;;;;;;;;
2022/06/27 02:53:55;;;;;;;5.9;2.6;;;;;;;;;;;;;
2022/06/27 02:56:22;;;;;;;6.6;2.3;;;;;;;;;;;;;
2022/06/27 02:58:48;;;;;;;4.9;2.4;;;;;;;;;;;;;
2022/06/27 03:01:13;;;;;;;5.6;2.6;;;;;;;;;;;;;
2022/06/27 03:03:41;;;;;;;10.7;2.7;;;;;;;;;;;;;
2022/06/27 03:06:06;;;;;;;4.9;2.6;;;;;;;;;;;;;
2022/06/27 03:08:32;;;;;;;8.8;3.2;;;;;;;;;;;;;
2022/06/27 03:10:57;;;;;;;8;3.3;;;;;;;;;;;;;
2022/06/27 03:13:23;;;;;;;13.3;3.4;;;;;;;;;;;;;
2022/06/27 03:15:48;;;;;;;13.7;4;;;;;;;;;;;;;
2022/06/27 03:18:15;;;;;;;10.1;3.4;;;;;;;;;;;;;
2022/06/27 03:20:39;;;;;;;8.6;3.7;;;;;;;;;;;;;
2022/06/27 03:23:05;;;;;;;7.4;3;;;;;;;;;;;;;
2022/06/27 03:25:30;;;;;;;6.5;2.8;;;;;;;;;;;;;
2022/06/27 03:27:57;;;;;;;7.3;3.1;;;;;;;;;;;;;
2022/06/27 03:30:22;;;;;;;10;2.9;;;;;;;;;;;;;
2022/06/27 03:32:50;;;;;;;5.7;3.2;;;;;;;;;;;;;
2022/06/27 03:35:15;;;;;;;7.1;3;;;;;;;;;;;;;
2022/06/27 03:37:43;;;;;;;6.7;2.8;;;;;;;;;;;;;
2022/06/27 03:40:08;;;;;;;11;3.4;;;;;;;;;;;;;
2022/06/27 03:42:36;;;;;;;6.6;2.9;;;;;;;;;;;;;
2022/06/27 03:45:01;;;;;;;10.7;4;;;;;;;;;;;;;
2022/06/27 03:47:26;;;;;;;6.3;3.3;;;;;;;;;;;;;
2022/06/27 03:50:13;;;;;;;9.9;3.8;;;;;;;;;;;;;
2022/06/27 03:52:18;;;;;;;7.5;3.1;;;;;;;;;;;;;
2022/06/27 03:54:43;;;;;;;9.2;3.1;;;;;;;;;;;;;
2022/06/27 03:57:10;;;;;;;4.7;3;;;;;;;;;;;;;
2022/06/27 03:59:35;;;;;;;8.7;2.8;;;;;;;;;;;;;
2022/06/27 04:02:37;;;;;;;7.4;3.3;;;;;;;19.38;73.77539;936.0666;;;;
2022/06/27 04:05:04;;;;;;;7.2;3.2;;;;;;;19.29;73.5625;936.0628;;;;
2022/06/27 04:07:32;;;;;;;7.9;3.2;;;;;;;19.33;73.83594;936.127;;;;
2022/06/27 04:09:58;;;;;;;8.8;2.9;;;;;;;19.42;73.31543;936.0657;;;;
2022/06/27 04:12:24;;;;;;;8.3;3.2;;;;;;;19.5;73.0957;936.1154;;;;
2022/06/27 04:14:49;;;;;;;11.9;3.9;;;;;;;19.57;72.81641;936.0911;;;;
2022/06/27 04:17:19;;;;;;;6.6;3;;;;;;;19.54;73.20703;936.0693;;;;
2022/06/27 04:19:50;;;;;;;8;3.3;;;;;;;19.66;73.72754;936.1946;;;;
2022/06/27 04:22:15;;;;;;;8;3.3;;;;;;;19.69;72.96582;936.2299;;;;
2022/06/27 04:24:46;;;;;;;6.5;3;;;;;;;19.67;73.39258;936.2781;;;;
2022/06/27 04:27:11;;;;;;;8.4;3.1;;;;;;;19.84;72.42773;936.2963;;;;
2022/06/27 04:29:41;;;;;;;7.8;3;;;;;;;19.95;71.97949;936.3431;;;;
2022/06/27 04:32:07;;;;;;;7.2;2.8;;;;;;;19.93;71.44141;936.3201;;;;
2022/06/27 04:34:31;;;;;;;12.8;3.4;;;;;;;20.07;71.63672;936.3536;;;;
2022/06/27 04:37:03;;;;;;;7.6;2.9;;;;;;;20.25;71.27051;936.3055;;;;
2022/06/27 04:39:27;;;;;;;7;2.7;;;;;;;20.39;72.57813;936.3253;;;;
2022/06/27 04:41:57;;;;;;;9.3;2.7;;;;;;;20.46;72.12109;936.3044;;;;
2022/06/27 04:44:28;;;;;;;6.7;2;;;;;;;20.58;72.48047;936.3117;;;;
2022/06/27 04:47:00;;;;;;;5.1;2.2;;;;;;;20.72;71.77832;936.3247;;;;
2022/06/27 04:49:25;;;;;;;6.3;2.8;;;;;;;20.92;71.51855;936.3182;;;;
2022/06/27 04:51:58;;;;;;;7.2;2.5;;;;;;;20.96;70.65918;936.3459;;;;
2022/06/27 04:54:22;;;;;;;10.5;2.4;;;;;;;20.87;71.03125;936.4526;;;;
2022/06/27 04:56:52;;;;;;;5.2;2.6;;;;;;;20.96;70.64844;936.4341;;;;
2022/06/27 04:59:15;;;;;;;5.5;2.2;;;;;;;21.17;71.05469;936.4955;;;;
2022/06/27 05:01:44;;;;;;;7.1;2.3;;;;;;;21.33;71.60742;936.4186;;;;
2022/06/27 05:04:10;;;;;;;3.7;2.3;;;;;;;21.31;70.39941;936.4224;;;;
2022/06/27 05:06:35;;;;;;;6.2;2.7;;;;;;;21.66;70.17383;936.5322;;;;
2022/06/27 05:09:00;;;;;;;5.6;2.6;;;;;;;22.6;66.60352;936.4207;;;;
2022/06/27 05:11:35;;;;;;;6.3;2.9;;;;;;;23.35;62.49414;936.4433;;;;
2022/06/27 05:14:07;;;;;;;5.9;2.8;;;;;;;23.64;63.05273;936.5136;;;;
2022/06/27 05:16:43;;;;;;;9.9;3.2;;;;;;;24.42;61.31348;936.5467;;;;
2022/06/27 05:19:12;;;;;;;7.5;2.5;;;;;;;24.63;61.63672;936.5172;;;;
2022/06/27 05:21:42;;;;;;;7.7;2.5;;;;;;;24.53;58.19141;936.4959;;;;
2022/06/27 05:24:07;;;;;;;16.9;3;;;;;;;25.4;57.2793;936.6019;;;;
2022/06/27 05:26:42;;;;;;;5.9;2.1;;;;;;;25.59;53.52148;936.4816;;;;
2022/06/27 05:29:14;;;;;;;4.6;2.2;;;;;;;26.51;52.3418;936.4999;;;;
2022/06/27 05:31:45;;;;;;;4.5;2.1;;;;;;;27.16;50.56738;936.5323;;;;
2022/06/27 05:34:16;;;;;;;3;2.2;;;;;;;27.85;49.24512;936.5385;;;;
2022/06/27 05:36:46;;;;;;;4.8;2.2;;;;;;;28.68;48.02734;936.5212;;;;
2022/06/27 05:39:11;;;;;;;4;1.8;;;;;;;28.2;46.65723;936.4702;;;;
2022/06/27 05:41:45;;;;;;;3.4;1.7;;;;;;;28.95;45.49609;936.475;;;;
2022/06/27 05:44:09;;;;;;;6.9;1.9;;;;;;;29.38;45.89648;936.4425;;;;
2022/06/27 05:46:40;;;;;;;7.1;2.2;;;;;;;29.62;44.44336;936.4425;;;;
2022/06/27 05:49:03;;;;;;;4;2;;;;;;;29.42;44.32813;936.365;;;;
2022/06/27 05:51:35;;;;;;;6;2.2;;;;;;;29.6;44.88184;936.3688;;;;
2022/06/27 05:54:00;;;;;;;3;1.5;;;;;;;29.37;44.95605;936.3953;;;;
2022/06/27 05:56:30;;;;;;;4.5;1.8;;;;;;;28.16;48.42285;936.3757;;;;
2022/06/27 05:59:00;;;;;;;3.2;2;;;;;;;29.25;48.57617;936.3775;;;;
2022/06/27 06:01:32;;;;;;;3.5;1.6;;;;;;;29.41;45.93555;936.3689;;;;
2022/06/27 06:04:00;;;;;;;3.6;1.8;;;;;;;29.87;45.88672;936.3975;;;;
2022/06/27 06:06:28;;;;;;;2.1;1.4;;;;;;;30.65;43.5293;936.3656;;;;
2022/06/27 06:08:50;;;;;;;2.5;1.3;;;;;;;30.2;45.78906;936.4031;;;;
2022/06/27 06:11:19;;;;;;;3;1.6;;;;;;;29.21;46.93945;936.3664;;;;
2022/06/27 06:13:45;;;;;;;2.7;1.4;;;;;;;28.54;49.2959;936.3061;;;;
2022/06/27 06:16:16;;;;;;;4;1.7;;;;;;;28.91;50.72949;936.3353;;;;
2022/06/27 06:18:40;;;;;;;2.7;1.7;;;;;;;29.7;47.3125;936.322;;;;
2022/06/27 06:21:05;;;;;;;3.3;1.8;;;;;;;29.62;46.63574;936.3318;;;;
2022/06/27 06:23:36;;;;;;;2.1;1.7;;;;;;;29.71;45.54883;936.3;;;;
2022/06/27 06:26:01;;;;;;;4.4;1.6;;;;;;;30.08;44.97754;936.2825;;;;
2022/06/27 06:28:25;;;;;;;3.8;1.6;;;;;;;30.76;44.9502;936.1849;;;;
2022/06/27 06:30:52;;;;;;;3.4;1.7;;;;;;;31.31;43.95117;936.1581;;;;
2022/06/27 06:33:17;;;;;;;2.7;1.6;;;;;;;31;42.89258;936.1572;;;;
2022/06/27 06:35:47;;;;;;;6.4;1.8;;;;;;;30.85;43.5957;936.1322;;;;
2022/06/27 06:38:15;;;;;;;3;1.8;;;;;;;30.37;44.74414;936.1437;;;;
2022/06/27 06:40:40;;;;;;;3.9;1.6;;;;;;;32.56;39.11621;936.0641;;;;
2022/06/27 06:43:10;;;;;;;3.8;1.7;;;;;;;33.09;39.95508;936.0919;;;;
2022/06/27 06:45:41;;;;;;;3.5;1.8;;;;;;;33.56;37.1709;936.0284;;;;
2022/06/27 06:48:11;;;;;;;2.5;1.7;;;;;;;33.32;38.28125;936.0009;;;;
2022/06/27 06:50:41;;;;;;;5.2;2.1;;;;;;;32.54;40.73535;936.0009;;;;
2022/06/27 06:53:05;;;;;;;3.9;1.7;;;;;;;32.44;40.5459;935.9075;;;;
2022/06/27 06:55:35;;;;;;;3.9;1.6;;;;;;;33.32;38.71387;935.9497;;;;
2022/06/27 06:58:06;;;;;;;3.3;1.5;;;;;;;34.44;36.03809;936.0047;;;;
2022/06/27 07:00:38;;;;;;;3.6;1.8;;;;;;;32.89;39.79297;935.964;;;;
2022/06/27 07:03:02;;;;;;;2.5;1.7;;;;;;;34.43;37.4707;935.9908;;;;
2022/06/27 07:05:32;;;;;;;2.9;1.6;;;;;;;35.23;33.66211;935.8967;;;;
2022/06/27 07:08:03;;;;;;;2.5;1.6;;;;;;;35.9;32.39453;935.9475;;;;
2022/06/27 07:10:28;;;;;;;6;1.8;;;;;;;35.47;33.72852;935.9598;;;;
2022/06/27 07:12:56;;;;;;;3.9;1.7;;;;;;;34.45;36.19531;935.9635;;;;
2022/06/27 07:15:21;;;;;;;3.4;1.4;;;;;;;35.49;33.82617;935.9782;;;;
2022/06/27 07:17:55;;;;;;;2.6;1.6;;;;;;;34.86;34.59961;935.984;;;;
2022/06/27 07:20:26;;;;;;;3.1;1.5;;;;;;;34.21;35.63379;935.9471;;;;
2022/06/27 07:22:54;;;;;;;3.7;1.5;;;;;;;33.94;35.81738;935.8845;;;;
2022/06/27 07:25:19;;;;;;;3.3;1.7;;;;;;;33.12;38.46777;935.8983;;;;
2022/06/27 07:27:48;;;;;;;2.6;1.5;;;;;;;31.68;41.05273;935.7951;;;;
2022/06/27 07:30:14;;;;;;;3.8;1.8;;;;;;;31.79;40.57227;935.7933;;;;
2022/06/27 07:32:43;;;;;;;3.3;1.8;;;;;;;33.08;38.63281;935.7762;;;;
2022/06/27 07:35:16;;;;;;;4.4;1.7;;;;;;;34.35;35.84961;935.7803;;;;
2022/06/27 07:37:44;;;;;;;5.1;1.3;;;;;;;33.74;36.1748;935.7781;;;;
2022/06/27 07:40:14;;;;;;;2.7;1.6;;;;;;;36.02;33.44141;935.775;;;;
2022/06/27 07:42:40;;;;;;;3.5;1.6;;;;;;;36.84;31.80566;935.7507;;;;
2022/06/27 07:45:05;;;;;;;2.8;1.6;;;;;;;35.94;33.41113;935.6878;;;;
2022/06/27 07:47:31;;;;;;;2.9;1.8;;;;;;;37.66;30.56445;935.702;;;;
2022/06/27 07:50:03;;;;;;;4;1.7;;;;;;;37.81;32.88086;935.7516;;;;
2022/06/27 07:52:29;;;;;;;6;1.7;;;;;;;37.26;29.81055;935.6892;;;;
2022/06/27 07:55:01;;;;;;;7.1;2.4;;;;;;;37.16;29.68359;935.6445;;;;
2022/06/27 07:57:25;;;;;;;4.1;1.8;;;;;;;36.73;30.39355;935.644;;;;
2022/06/27 07:59:54;;;;;;;2.8;1.7;;;;;;;38.26;27.76172;935.6336;;;;
2022/06/27 08:02:17;;;;;;;7.7;2.5;;;;;;;37.74;27.96094;935.649;;;;
2022/06/27 08:04:44;;;;;;;4.3;1.8;;;;;;;38.71;28.28711;935.6219;;;;
2022/06/27 08:07:12;;;;;;;3.4;1.9;;;;;;;39.82;27.58691;935.5781;;;;
2022/06/27 08:09:38;;;;;;;3.7;1.8;;;;;;;39.9;25.84863;935.5611;;;;
2022/06/27 08:12:06;;;;;;;5.5;1.9;;;;;;;40.44;26.07422;935.582;;;;
2022/06/27 08:14:37;;;;;;;6.1;2;;;;;;;40.28;25.71191;935.5617;;;;
2022/06/27 08:17:07;;;;;;;3.6;2;;;;;;;40.11;26.2627;935.5368;;;;
2022/06/27 08:19:38;;;;;;;6;1.9;;;;;;;38.24;30.04492;935.4989;;;;
2022/06/27 08:22:04;;;;;;;4;1.7;;;;;;;38.19;33.09082;935.4405;;;;
2022/06/27 08:24:27;;;;;;;4.4;1.9;;;;;;;38.57;30.68555;935.4966;;;;
2022/06/27 08:26:56;;;;;;;3.4;1.9;;;;;;;37.96;30.40332;935.5284;;;;
2022/06/27 08:29:21;;;;;;;5.8;2.2;;;;;;;36.71;33.04492;935.5028;;;;
2022/06/27 08:31:48;;;;;;;5.4;2.5;;;;;;;35.97;34.98535;935.4384;;;;
2022/06/27 08:34:16;;;;;;;2.5;1.8;;;;;;;36.97;33.53613;935.4182;;;;
2022/06/27 08:36:40;;;;;;;4.2;1.8;;;;;;;37.89;32.25586;935.4426;;;;
2022/06/27 08:39:11;;;;;;;4.8;2;;;;;;;36.83;34.64063;935.4441;;;;
2022/06/27 08:41:37;;;;;;;10.6;2;;;;;;;37.66;34.39941;935.4958;;;;
2022/06/27 08:44:04;;;;;;;6.7;2.2;;;;;;;35.71;35.52148;935.4109;;;;
2022/06/27 08:46:30;;;;;;;3.8;2.1;;;;;;;35.55;37.33301;935.3374;;;;
2022/06/27 08:49:03;;;;;;;6.8;2.2;;;;;;;35.68;35.30176;935.3728;;;;
2022/06/27 08:51:31;;;;;;;7.8;2.3;;;;;;;34.45;38.33984;935.3449;;;;
2022/06/27 08:53:58;;;;;;;13;2.4;;;;;;;35.47;38.11133;935.3284;;;;
2022/06/27 08:56:29;;;;;;;5.3;2;;;;;;;35.3;38.54395;935.3158;;;;
2022/06/27 08:58:55;;;;;;;3;2;;;;;;;35.92;36.56543;935.2935;;;;
2022/06/27 09:01:19;;;;;;;5.5;2.1;;;;;;;35.79;36.41113;935.2392;;;;
2022/06/27 09:03:49;;;;;;;4.4;2;;;;;;;35.64;36.04785;935.2792;;;;
2022/06/27 09:06:16;;;;;;;6.1;2;;;;;;;34.72;41.29297;935.2185;;;;
2022/06/27 09:08:47;;;;;;;4.4;2.3;;;;;;;34.91;37.38965;935.1729;;;;
2022/06/27 09:11:14;;;;;;;4;2.2;;;;;;;33.97;40.81445;935.2159;;;;
2022/06/27 09:13:43;;;;;;;4.7;2.1;;;;;;;34.84;38.83105;935.2161;;;;
2022/06/27 09:16:12;;;;;;;3.9;2.2;;;;;;;35.79;37.26758;935.2341;;;;
2022/06/27 09:18:38;;;;;;;6.1;2.1;;;;;;;35.43;39.28027;935.1951;;;;
2022/06/27 09:21:03;;;;;;;5.5;1.9;;;;;;;34.8;38.87598;935.2073;;;;
2022/06/27 09:23:28;;;;;;;6.7;2;;;;;;;35.92;36.70996;935.0773;;;;
2022/06/27 09:25:58;;;;;;;6.4;1.9;;;;;;;35.72;35.77637;935.1111;;;;
2022/06/27 09:28:23;;;;;;;8.4;2.5;;;;;;;35.79;37.73926;935.0308;;;;
2022/06/27 09:30:48;;;;;;;6.5;2.2;;;;;;;36.39;35.12695;935.0256;;;;
2022/06/27 09:33:18;;;;;;;6.4;3;;;;;;;36.1;36.54395;934.9762;;;;
2022/06/27 09:35:46;;;;;;;4.9;2.4;;;;;;;35.17;38.30371;934.9899;;;;
2022/06/27 09:38:16;;;;;;;5;2.5;;;;;;;34.95;39.75586;934.9423;;;;
2022/06/27 09:40:44;;;;;;;28.7;10;;;;;;;35.73;35.41406;934.9272;;;;
2022/06/27 09:43:11;;;;;;;10.8;4.6;;;;;;;35.97;37.5;934.983;;;;
2022/06/27 09:45:41;;;;;;;8.2;3;;;;;;;35.48;41.22754;934.947;;;;
2022/06/27 09:48:11;;;;;;;7.9;2.4;;;;;;;34.71;39.33887;934.8923;;;;
2022/06/27 09:50:39;;;;;;;18.5;4.3;;;;;;;33.7;43.1123;934.9197;;;;
2022/06/27 09:53:08;;;;;;;18.4;7.9;;;;;;;34.25;39.87695;934.8608;;;;
2022/06/27 09:55:41;;;;;;;24.9;9.8;;;;;;;34.72;35.33594;934.824;;;;
2022/06/27 09:58:10;;;;;;;10.1;4.3;;;;;;;34.98;37.1543;934.8138;;;;
2022/06/27 10:00:40;;;;;;;17.6;5.8;;;;;;;34.71;39.16895;934.8333;;;;
2022/06/27 10:03:05;;;;;;;7.2;3.1;;;;;;;34.02;42.01172;934.8617;;;;
2022/06/27 10:05:30;;;;;;;10.3;4.5;;;;;;;34.08;43.73828;934.8416;;;;
2022/06/27 10:08:00;;;;;;;7.7;2.9;;;;;;;33.81;42.5332;934.8411;;;;
2022/06/27 10:10:33;;;;;;;4.7;2.3;;;;;;;33.17;43.93945;934.8422;;;;
2022/06/27 10:12:57;;;;;;;10.6;4.7;;;;;;;33.17;43.8916;934.8223;;;;
2022/06/27 10:15:22;;;;;;;7.6;2.9;;;;;;;32.53;48.65332;934.8517;;;;
2022/06/27 10:17:50;;;;;;;10.2;4.1;;;;;;;32.71;43.18652;934.808;;;;
2022/06/27 10:20:19;;;;;;;7.1;3.5;;;;;;;32.04;44.56152;934.7466;;;;
2022/06/27 10:22:49;;;;;;;10.3;3.6;;;;;;;31.96;48.11328;934.8039;;;;
2022/06/27 10:25:16;;;;;;;11.8;4.6;;;;;;;31.91;48.34668;934.798;;;;
2022/06/27 10:27:47;;;;;;;5.2;2.7;;;;;;;31.93;50.08594;934.8359;;;;
2022/06/27 10:30:15;;;;;;;5.9;2.8;;;;;;;31.57;49.83203;934.79;;;;
2022/06/27 10:32:41;;;;;;;8.8;3.3;;;;;;;31.34;49.65137;934.8858;;;;
2022/06/27 10:35:15;;;;;;;8.4;3.5;;;;;;;31.15;50.62305;934.8881;;;;
2022/06/27 10:37:47;;;;;;;12.6;3.5;;;;;;;31.24;49.96289;934.7933;;;;
2022/06/27 10:40:22;;;;;;;9.8;4.4;;;;;;;31.01;50.33203;934.84;;;;
2022/06/27 10:42:50;;;;;;;6.4;3.1;;;;;;;31.15;50.06055;934.7921;;;;
2022/06/27 10:45:18;;;;;;;9;4;;;;;;;31.5;48.99805;934.8387;;;;
2022/06/27 10:47:47;;;;;;;4.9;2.6;;;;;;;31.57;48.75391;934.7679;;;;
2022/06/27 10:50:14;;;;;;;6.6;2.7;;;;;;;31.61;48.1709;934.7668;;;;
2022/06/27 10:52:41;;;;;;;19.2;3.9;;;;;;;31.14;47.99023;934.8083;;;;
2022/06/27 10:55:06;;;;;;;7.9;2.9;;;;;;;31.26;48.9248;934.6969;;;;
2022/06/27 10:57:35;;;;;;;3.7;1.8;;;;;;;31.41;47.02539;934.7464;;;;
2022/06/27 11:00:05;;;;;;;4.9;2.1;;;;;;;31.28;50.06348;934.7496;;;;
2022/06/27 11:02:43;;;;;;;5;2;;;;;;;31.54;50.76172;934.7313;;;;
2022/06/27 11:05:26;;;;;;;4;2.2;;;;;;;31.74;47.03613;934.7072;;;;
2022/06/27 11:07:55;;;;;;;6;2.2;;;;;;;31.61;48.04004;934.7302;;;;
2022/06/27 11:10:32;;;;;;;4.7;2.3;;;;;;;31.68;49.3291;934.7282;;;;
2022/06/27 11:13:12;;;;;;;4.3;2;;;;;;;31.15;51.16113;934.718;;;;
2022/06/27 11:15:44;;;;;;;4.7;2.1;;;;;;;31.08;52.83984;934.7645;;;;
2022/06/27 11:18:27;;;;;;;3.9;2.4;;;;;;;31.14;50.2627;934.7511;;;;
2022/06/27 11:20:58;;;;;;;4.8;2.3;;;;;;;30.96;52.5625;934.7834;;;;
2022/06/27 11:23:35;;;;;;;7.4;2.2;;;;;;;30.62;52.7373;934.7869;;;;
2022/06/27 11:26:03;;;;;;;5.5;2.5;;;;;;;30.8;52.18457;934.8125;;;;
2022/06/27 11:33:18;;;;;;;4.3;2.2;;;;;;;30.8;52.22168;934.7885;;;;
2022/06/27 11:35:43;;;;;;;5.3;2.1;;;;;;;30.74;52.42969;934.7584;;;;
2022/06/27 11:38:08;;;;;;;4.9;2.2;;;;;;;30.52;53.96777;934.7981;;;;
2022/06/27 11:40:34;;;;;;;6.3;2.8;;;;;;;30.59;53.04492;934.7874;;;;
2022/06/27 11:42:59;;;;;;;4.8;2.5;;;;;;;30.52;52.54688;934.7942;;;;
2022/06/27 11:45:24;;;;;;;7.7;2.5;;;;;;;30.43;52.52539;934.8676;;;;
2022/06/27 11:47:49;;;;;;;6.9;2.7;;;;;;;30.39;52.05469;934.8499;;;;
2022/06/27 11:50:15;;;;;;;5.4;2.2;;;;;;;30.41;52.2832;934.8872;;;;
2022/06/27 11:52:39;;;;;;;3.1;2.1;;;;;;;30.46;52.63574;934.8795;;;;
2022/06/27 11:55:04;;;;;;;5.5;2.4;;;;;;;30.37;54.01074;934.9325;;;;
2022/06/27 11:57:31;;;;;;;5.7;2.5;;;;;;;30.15;54.83105;934.9748;;;;
2022/06/27 11:59:54;;;;;;;5.3;2.2;;;;;;;30.18;52.50684;934.9779;;;;
2022/06/27 12:02:19;;;;;;;4.7;2.2;;;;;;;30.4;51.6377;934.9675;;;;
2022/06/27 12:04:45;;;;;;;4.9;2.3;;;;;;;30.47;51.63379;935.0731;;;;
2022/06/27 12:07:10;;;;;;;7.6;2.2;;;;;;;30.63;50.12305;935.1298;;;;
2022/06/27 12:09:35;;;;;;;4.8;2.3;;;;;;;30.56;53.21973;935.1534;;;;
2022/06/27 12:12:00;;;;;;;3.3;2.3;;;;;;;30.53;52.84766;935.1142;;;;
2022/06/27 12:14:25;;;;;;;4.9;2.1;;;;;;;30.64;51.58008;935.1041;;;;
2022/06/27 12:16:50;;;;;;;4.4;2;;;;;;;30.36;54.10352;935.1253;;;;
2022/06/27 12:19:16;;;;;;;5.9;2.3;;;;;;;30.31;53.63184;935.1914;;;;
2022/06/27 12:21:40;;;;;;;4.2;2.3;;;;;;;30.15;55.1416;935.2682;;;;
2022/06/27 12:24:05;;;;;;;4;2.2;;;;;;;30.21;54.09961;935.3029;;;;
2022/06/27 12:26:31;;;;;;;4.7;2.4;;;;;;;30.26;54.27148;935.3403;;;;
2022/06/27 12:28:55;;;;;;;7.5;2.5;;;;;;;30.3;54.16895;935.3762;;;;
2022/06/27 12:31:21;;;;;;;4;2;;;;;;;30.05;54.20996;935.4486;;;;
2022/06/27 12:33:46;;;;;;;4.4;2.1;;;;;;;29.96;55.19141;935.5017;;;;
2022/06/27 12:36:11;;;;;;;4.4;2.2;;;;;;;29.91;53.95605;935.5267;;;;
2022/06/27 12:38:36;;;;;;;7.1;2.5;;;;;;;30.1;53.9668;935.5563;;;;
2022/06/27 12:41:14;;;;;;;4.4;2.3;;;;;;;30.3;52.23535;935.6605;;;;
2022/06/27 12:43:26;;;;;;;5.6;2.3;;;;;;;29.65;55.06934;935.5553;;;;
2022/06/27 12:45:52;;;;;;;10.3;2.5;;;;;;;29.22;58.08887;935.5574;;;;
2022/06/27 12:48:16;;;;;;;4.5;2.6;;;;;;;29.37;56.04785;935.4922;;;;
2022/06/27 12:50:41;;;;;;;4.4;2.6;;;;;;;29.7;55.83789;935.6424;;;;
2022/06/27 12:53:06;;;;;;;4.2;2.1;;;;;;;30.05;53.79297;935.6365;;;;
2022/06/27 12:55:32;;;;;;;2.6;1.9;;;;;;;30.13;53.22949;935.6853;;;;
2022/06/27 12:57:57;;;;;;;3;2;;;;;;;29.78;54.29785;935.5953;;;;
2022/06/27 13:00:22;;;;;;;4.4;2.3;;;;;;;29.85;55.25977;935.6442;;;;
2022/06/27 13:02:47;;;;;;;3.1;2.4;;;;;;;29.81;54.50391;935.741;;;;
2022/06/27 13:05:12;;;;;;;12.9;2.9;;;;;;;29.91;55.8877;935.7625;;;;
2022/06/27 13:07:37;;;;;;;4.8;2.2;;;;;;;29.75;53.30273;935.8047;;;;
2022/06/27 13:10:02;;;;;;;3.8;2.3;;;;;;;29.89;55.49219;935.7875;;;;
2022/06/27 13:12:27;;;;;;;2.3;1.9;;;;;;;30.2;52.55762;935.8639;;;;
2022/06/27 13:14:52;;;;;;;3.2;2.1;;;;;;;30.47;50.88086;935.8627;;;;
2022/06/27 13:17:17;;;;;;;4.3;1.9;;;;;;;30.4;52.21094;935.9036;;;;
2022/06/27 13:19:42;;;;;;;4;1.7;;;;;;;30.38;52.00488;935.8344;;;;
2022/06/27 13:22:07;;;;;;;2.1;1.9;;;;;;;30.3;51.33984;935.8791;;;;
2022/06/27 13:24:33;;;;;;;2.8;2;;;;;;;30.43;50.7207;935.8397;;;;
2022/06/27 13:26:58;;;;;;;2.7;1.8;;;;;;;30.53;51.53223;935.8839;;;;
2022/06/27 13:29:23;;;;;;;3.4;1.8;;;;;;;30.5;51.29102;935.9903;;;;
2022/06/27 13:31:49;;;;;;;2.4;1.7;;;;;;;30.3;52.31836;936.02;;;;
2022/06/27 13:34:13;;;;;;;3.4;1.9;;;;;;;30.19;52.24707;935.8646;;;;
2022/06/27 13:36:38;;;;;;;3.1;1.8;;;;;;;30.08;52.05371;935.9303;;;;
2022/06/27 13:39:03;;;;;;;2.9;1.9;;;;;;;30.34;51.55859;936.0066;;;;
2022/06/27 13:41:28;;;;;;;4.1;2;;;;;;;30.31;50.58691;936.0262;;;;
2022/06/27 13:43:53;;;;;;;4.4;1.7;;;;;;;30.24;52.9209;936.0381;;;;
2022/06/27 13:46:19;;;;;;;3.5;2;;;;;;;30.02;52.69141;936.1284;;;;
2022/06/27 13:48:44;;;;;;;2.3;1.5;;;;;;;30.06;52.3623;936.1558;;;;
2022/06/27 13:51:09;;;;;;;3.3;1.8;;;;;;;30.05;52.51563;936.2173;;;;
2022/06/27 13:53:35;;;;;;;4.8;2.5;;;;;;;29.5;52.97656;936.2029;;;;
2022/06/27 13:55:59;;;;;;;4.6;2.1;;;;;;;29.57;52.35156;936.2723;;;;
2022/06/27 13:58:24;;;;;;;4.3;2.1;;;;;;;29.64;52.44531;936.2586;;;;
2022/06/27 14:00:50;;;;;;;3.9;2.1;;;;;;;29.47;53.47363;936.3773;;;;
2022/06/27 14:03:14;;;;;;;2.7;1.9;;;;;;;29.45;51.625;936.3881;;;;
2022/06/27 14:05:39;;;;;;;5.9;1.9;;;;;;;29.37;52.39063;936.4609;;;;
2022/06/27 14:08:05;;;;;;;4.3;1.8;;;;;;;29.28;52.78418;936.452;;;;
2022/06/27 14:10:31;;;;;;;5.4;1.9;;;;;;;29.25;53.14941;936.541;;;;
2022/06/27 14:12:55;;;;;;;2.6;1.7;;;;;;;29.22;52.94336;936.5144;;;;
2022/06/27 14:15:20;;;;;;;2;1.8;;;;;;;29.01;53.95605;936.4661;;;;
2022/06/27 14:17:45;;;;;;;3.6;1.8;;;;;;;28.7;53.95313;936.6016;;;;
2022/06/27 14:20:10;;;;;;;4.7;2.1;;;;;;;28.39;54.09473;936.6956;;;;
2022/06/27 14:22:35;;;;;;;3.9;1.8;;;;;;;28.46;53.88965;936.6233;;;;
2022/06/27 14:25:00;;;;;;;3.3;2.1;;;;;;;28.36;54.31738;936.7142;;;;
2022/06/27 14:27:26;;;;;;;4.4;1.9;;;;;;;28.33;55.1582;936.7639;;;;
2022/06/27 14:29:52;;;;;;;3.7;1.7;;;;;;;28.33;55.45508;936.7656;;;;
2022/06/27 14:32:16;;;;;;;3;1.6;;;;;;;28.25;55.70801;936.7123;;;;
2022/06/27 14:34:41;;;;;;;5.6;1.7;;;;;;;28.29;55.78223;936.5823;;;;
2022/06/27 14:37:06;;;;;;;4;1.7;;;;;;;28.13;55.7041;936.3744;;;;
2022/06/27 14:39:31;;;;;;;8.6;2.3;;;;;;;28.12;55.86914;936.1817;;;;
2022/06/27 14:41:56;;;;;;;3.4;1.9;;;;;;;28.1;55.74707;936.1145;;;;
2022/06/27 14:44:21;;;;;;;3.9;1.6;;;;;;;27.95;56.13281;936.1735;;;;
2022/06/27 14:46:46;;;;;;;3.4;2.1;;;;;;;27.81;58.01465;936.3323;;;;
2022/06/27 14:49:11;;;;;;;1.9;1.7;;;;;;;27.67;57.1543;936.3348;;;;
2022/06/27 14:51:37;;;;;;;4;1.9;;;;;;;27.53;59.4375;936.3025;;;;
2022/06/27 14:54:02;;;;;;;2.3;1.8;;;;;;;27.41;59.90918;936.4216;;;;
2022/06/27 14:56:27;;;;;;;5.8;1.8;;;;;;;26.83;63.08984;936.7464;;;;
2022/06/27 14:58:52;;;;;;;3.8;2;;;;;;;26.39;67.93945;937.2249;;;;
2022/06/27 15:01:17;;;;;;;3.6;2.3;;;;;;;26.04;68.18359;937.4434;;;;
2022/06/27 15:03:42;;;;;;;4.9;2.7;;;;;;;25.99;68.24609;937.3256;;;;
2022/06/27 15:06:07;;;;;;;4;2.2;;;;;;;26.17;68.4043;936.9836;;;;
2022/06/27 15:08:32;;;;;;;3.3;1.9;;;;;;;25.87;72.58984;936.7911;;;;
2022/06/27 15:13:23;;;;;;;3.2;2.4;;;;;;;26.22;71.34473;936.9191;;;;
2022/06/27 15:15:47;;;;;;;3.3;2;;;;;;;26.34;70.35742;936.8442;;;;
2022/06/27 15:18:12;;;;;;;3.2;1.9;;;;;;;26.26;70.47656;936.7759;;;;
2022/06/27 15:20:38;;;;;;;2.1;1.9;;;;;;;25.86;72.20996;936.9313;;;;
2022/06/27 15:23:03;;;;;;;4.4;1.9;;;;;;;25.73;75.6875;937.0671;;;;
2022/06/27 15:25:28;;;;;;;3.9;2.3;;;;;;;25.86;74.33887;937.1993;;;;
2022/06/27 15:27:53;;;;;;;3.1;1.9;;;;;;;26.01;72.44727;937.3917;;;;
2022/06/27 15:30:18;;;;;;;2.6;1.9;;;;;;;25.88;73.19434;937.4253;;;;
2022/06/27 15:32:43;;;;;;;2.4;2;;;;;;;25.78;73.61621;937.442;;;;
2022/06/27 15:35:08;;;;;;;2.4;1.7;;;;;;;25.61;73.71777;937.459;;;;
2022/06/27 15:37:33;;;;;;;2.2;1.6;;;;;;;25.42;73.78125;937.5189;;;;
2022/06/27 15:39:58;;;;;;;2.3;1.6;;;;;;;25.36;74.46777;937.5783;;;;
2022/06/27 15:42:24;;;;;;;2.2;1.5;;;;;;;25.27;74.83203;937.5783;;;;
2022/06/27 15:44:49;;;;;;;3.2;1.8;;;;;;;25.05;76.77637;937.611;;;;
2022/06/27 15:47:14;;;;;;;2.5;1.6;;;;;;;24.58;79.12305;937.5527;;;;